Hovedside
METAR-TAF:

METAR-TAF

Lufthavner :

Air Force Base Langebaanweg

Langebaan, Sør-Afrika

breddegrad: 32-58-08S, lengdegrad: 018-09-55E, høyde over havet: 33 m

Gjeldene værobservasjon

Denne rapporten ble laget for 51 minutter siden, klokken 02:00 UTC
Vind 1 kt fra Nord-nordvest
Temperatur 10°C
Luftfuktighet 82%
Trykk 1018 hPa

METAR: FALW 140200Z AUTO 33001KT //// // ////// 10/07 Q1018

Tid: 04:51 (02:51 UTC)


TAF: fraværende

Værobservasjoner og værvarsel for over 4000 flyplasser (METAR- og TAF-rapporter).

Tilgjengelige stasjoner er representert av de røde og gule prikkene på kartet.

Hold musepekeren over prikken for å se navnet på stasjonen.

Klikk så for å se værobservasjoner og -varsler.

For å forandre kartet kan du klikke på den grønne knappen med svart kryss for å zoome inn, på den grønne knappen med strek for å zoome ut, eller på de grønne pilene for å se tilstøtende kart.


METAR-TAF: